Terminal Aerodrome Forecast
Issued by NWS

Home | Current Version | Previous Version | Text Only | Print | Product List | Glossary On
Versions: 1 2 3 4 5 6 7 8 9 10 11 12 13 14 15 16 17 18 19 20
000
FTUS46 KMFR 220500
TAFOTH
TAF
KOTH 220538Z 2206/2306 16004KT P6SM OVC012
     FM221800 35008KT P6SM SKC
     FM222100 35015G25KT P6SM SKC
     FM230500 36008KT P6SM BKN008=

USA.gov is the U.S. government's official web portal to all federal, state and local government web resources and services.